createdAt,value
2024-04-13T00:02:24.416Z,32.70
2024-04-13T00:04:51.777Z,28.40
2024-04-13T00:07:18.699Z,30.10
2024-04-13T00:09:45.535Z,30.73
2024-04-13T00:12:12.760Z,30.95
2024-04-13T00:14:39.587Z,27.08
2024-04-13T00:17:09.004Z,28.95
2024-04-13T00:19:37.154Z,29.80
2024-04-13T00:22:05.816Z,33.25
2024-04-13T00:24:33.592Z,31.38
2024-04-13T00:27:00.820Z,34.25
2024-04-13T00:29:28.157Z,30.90
2024-04-13T00:31:55.447Z,36.08
2024-04-13T00:34:22.389Z,34.45
2024-04-13T00:36:49.665Z,29.10
2024-04-13T00:39:16.971Z,34.85
2024-04-13T00:41:44.293Z,30.38
2024-04-13T00:44:11.710Z,31.05
2024-04-13T00:46:43.689Z,32.38
2024-04-13T00:49:15.597Z,30.58
2024-04-13T00:51:45.493Z,38.08
2024-04-13T00:54:15.669Z,30.38
2024-04-13T00:56:48.348Z,30.92
2024-04-13T00:59:16.642Z,32.72
2024-04-13T01:01:45.740Z,30.92
2024-04-13T01:04:13.191Z,29.33
2024-04-13T01:06:40.475Z,32.40
2024-04-13T01:09:08.391Z,29.00
2024-04-13T01:11:39.902Z,27.63
2024-04-13T01:14:09.156Z,31.85
2024-04-13T01:16:36.900Z,30.93
2024-04-13T01:19:06.082Z,26.25
2024-04-13T01:21:33.669Z,32.53
2024-04-13T01:24:05.588Z,32.90
2024-04-13T01:26:39.653Z,27.88
2024-04-13T01:29:07.644Z,28.17
2024-04-13T01:31:39.309Z,30.15
2024-04-13T01:34:06.943Z,27.45
2024-04-13T01:36:40.625Z,28.67
2024-04-13T01:39:13.025Z,30.40
2024-04-13T01:41:42.928Z,29.42
2024-04-13T01:44:10.785Z,28.38
2024-04-13T01:46:38.230Z,30.52
2024-04-13T01:49:06.177Z,32.08
2024-04-13T01:51:33.900Z,25.88
2024-04-13T01:54:01.338Z,27.40
2024-04-13T01:56:28.941Z,33.55
2024-04-13T01:58:56.676Z,26.67
2024-04-13T02:01:24.184Z,30.00
2024-04-13T02:03:52.397Z,25.92
2024-04-13T02:06:19.516Z,28.90
2024-04-13T02:08:46.814Z,27.08
2024-04-13T02:11:14.124Z,28.90
2024-04-13T02:13:41.573Z,33.17
2024-04-13T02:16:09.352Z,30.13
2024-04-13T02:18:38.619Z,31.15
2024-04-13T02:21:07.240Z,27.70
2024-04-13T02:23:34.217Z,28.92
2024-04-13T02:26:01.806Z,31.13
2024-04-13T02:28:29.050Z,26.67
2024-04-13T02:30:57.070Z,29.98
2024-04-13T02:33:25.087Z,27.83
2024-04-13T02:36:05.325Z,30.65
2024-04-13T02:38:36.050Z,32.83
2024-04-13T02:41:05.184Z,27.45
2024-04-13T02:43:32.845Z,23.80
2024-04-13T02:46:09.391Z,25.83
2024-04-13T02:48:42.036Z,26.88
2024-04-13T02:51:10.442Z,30.63
2024-04-13T02:53:38.672Z,24.83
2024-04-13T02:56:06.805Z,28.27
2024-04-13T02:58:34.043Z,23.83
2024-04-13T03:01:02.452Z,28.77
2024-04-13T03:03:30.217Z,26.48
2024-04-13T03:06:01.536Z,26.55
2024-04-13T03:08:28.962Z,27.42
2024-04-13T03:11:00.340Z,28.13
2024-04-13T03:13:27.604Z,28.92
2024-04-13T03:16:08.770Z,25.45
2024-04-13T03:18:41.030Z,24.33
2024-04-13T03:21:08.787Z,23.75
2024-04-13T03:23:37.710Z,24.85
2024-04-13T03:26:05.106Z,29.13
2024-04-13T03:28:34.919Z,23.10
2024-04-13T03:31:02.609Z,25.60
2024-04-13T03:33:30.091Z,24.65
2024-04-13T03:36:01.432Z,25.95
2024-04-13T03:38:28.744Z,26.13
2024-04-13T03:41:07.265Z,25.95
2024-04-13T03:43:35.420Z,24.88
2024-04-13T03:46:02.231Z,23.27
2024-04-13T03:48:29.784Z,24.92
2024-04-13T03:50:57.181Z,23.08
2024-04-13T03:53:24.012Z,22.65
2024-04-13T03:55:51.282Z,24.42
2024-04-13T03:58:18.584Z,22.23
2024-04-13T04:00:46.020Z,22.52
2024-04-13T04:03:13.685Z,28.08
2024-04-13T04:05:41.052Z,26.45
2024-04-13T04:08:09.542Z,22.88
2024-04-13T04:10:36.793Z,20.20
2024-04-13T04:13:03.929Z,23.77
2024-04-13T04:15:31.309Z,23.30
2024-04-13T04:17:58.713Z,21.65
2024-04-13T04:20:26.333Z,17.80
2024-04-13T04:22:54.046Z,25.95
2024-04-13T04:25:21.598Z,20.25
2024-04-13T04:27:48.885Z,24.95
2024-04-13T04:30:16.536Z,19.30
2024-04-13T04:32:46.799Z,24.30
2024-04-13T04:35:14.193Z,20.67
2024-04-13T04:37:41.493Z,20.38
2024-04-13T04:40:11.966Z,20.05
2024-04-13T04:42:39.324Z,22.55
2024-04-13T04:45:09.563Z,24.98
2024-04-13T04:47:37.076Z,21.52
2024-04-13T04:50:07.315Z,22.20
2024-04-13T04:52:34.557Z,18.55
2024-04-13T04:55:03.249Z,21.45
2024-04-13T04:57:31.016Z,23.08
2024-04-13T04:59:58.619Z,21.45
2024-04-13T05:02:26.329Z,19.35
2024-04-13T05:04:53.944Z,17.33
2024-04-13T05:07:21.320Z,22.27
2024-04-13T05:09:48.351Z,21.98
2024-04-13T05:12:15.904Z,20.02
2024-04-13T05:14:43.192Z,17.83
2024-04-13T05:17:10.627Z,22.17
2024-04-13T05:19:39.862Z,19.33
2024-04-13T05:22:07.708Z,19.30
2024-04-13T05:24:35.216Z,19.45
2024-04-13T05:27:07.874Z,17.33
2024-04-13T05:29:36.324Z,20.83
2024-04-13T05:32:05.715Z,18.85
2024-04-13T05:34:33.256Z,20.05
2024-04-13T05:37:00.475Z,17.67
2024-04-13T05:39:30.512Z,18.30
2024-04-13T05:41:58.035Z,20.42
2024-04-13T05:44:25.423Z,20.40
2024-04-13T05:46:52.953Z,20.85
2024-04-13T05:49:20.372Z,18.42
2024-04-13T05:51:49.656Z,22.25
2024-04-13T05:54:17.231Z,20.92
2024-04-13T05:56:44.188Z,19.92
2024-04-13T05:59:11.483Z,19.75
2024-04-13T06:01:39.228Z,24.27
2024-04-13T06:04:06.116Z,21.20
2024-04-13T06:06:33.593Z,26.65
2024-04-13T06:09:00.913Z,25.02
2024-04-13T06:11:28.859Z,20.40
2024-04-13T06:13:56.283Z,23.15
2024-04-13T06:16:23.645Z,28.35
2024-04-13T06:18:51.038Z,24.80
2024-04-13T06:21:18.464Z,26.40
2024-04-13T06:23:45.762Z,27.40
2024-04-13T06:26:13.062Z,29.63
2024-04-13T06:28:40.382Z,28.80
2024-04-13T06:31:08.204Z,27.15
2024-04-13T06:33:35.752Z,36.40
2024-04-13T06:36:03.220Z,28.55
2024-04-13T06:38:31.222Z,26.58
2024-04-13T06:40:58.564Z,30.42
2024-04-13T06:43:25.904Z,29.25
2024-04-13T06:45:53.239Z,33.35
2024-04-13T06:48:20.562Z,30.08
2024-04-13T06:50:48.160Z,30.80
2024-04-13T06:53:15.439Z,28.58
2024-04-13T06:55:42.629Z,24.00
2024-04-13T06:58:10.491Z,28.55
2024-04-13T07:00:38.021Z,31.40
2024-04-13T07:03:05.873Z,36.70
2024-04-13T07:05:33.262Z,25.85
2024-04-13T07:08:00.536Z,28.73
2024-04-13T07:10:27.832Z,31.52
2024-04-13T07:12:55.196Z,26.15
2024-04-13T07:15:22.711Z,28.17
2024-04-13T07:17:51.163Z,29.33
2024-04-13T07:20:18.748Z,31.17
2024-04-13T07:22:46.682Z,34.67
2024-04-13T07:25:14.033Z,27.48
2024-04-13T07:27:41.953Z,30.85
2024-04-13T07:30:09.659Z,25.60
2024-04-13T07:32:37.121Z,27.40
2024-04-13T07:35:05.180Z,31.95
2024-04-13T07:37:32.484Z,27.17
2024-04-13T07:39:59.846Z,35.83
2024-04-13T07:42:28.102Z,26.92
2024-04-13T07:44:55.632Z,21.83
2024-04-13T07:47:23.057Z,21.17
2024-04-13T07:49:50.095Z,28.13
2024-04-13T07:52:17.360Z,29.77
2024-04-13T07:54:44.988Z,29.77
2024-04-13T07:57:12.370Z,22.63
2024-04-13T07:59:39.715Z,17.05
2024-04-13T08:02:07.049Z,20.40
2024-04-13T08:04:36.304Z,23.45
2024-04-13T08:07:05.159Z,23.75
2024-04-13T08:09:32.523Z,24.13
2024-04-13T08:11:59.818Z,30.05
2024-04-13T08:14:27.089Z,19.00
2024-04-13T08:16:54.427Z,19.60
2024-04-13T08:19:21.772Z,22.23
2024-04-13T08:21:49.122Z,23.63
2024-04-13T08:24:16.469Z,22.27
2024-04-13T08:26:43.564Z,20.13
2024-04-13T08:29:12.453Z,22.27
2024-04-13T08:31:39.797Z,22.00
2024-04-13T08:34:07.165Z,19.92
2024-04-13T08:36:34.495Z,19.73
2024-04-13T08:39:01.786Z,18.65
2024-04-13T08:42:04.807Z,19.77
2024-04-13T08:44:32.788Z,18.90
2024-04-13T08:47:01.496Z,17.73
2024-04-13T08:49:32.557Z,16.50
2024-04-13T08:52:00.860Z,18.48
2024-04-13T08:54:31.496Z,16.00
2024-04-13T08:57:01.942Z,13.43
2024-04-13T08:59:29.747Z,20.48
2024-04-13T09:01:57.744Z,19.70
2024-04-13T09:04:25.234Z,19.20
2024-04-13T09:06:52.527Z,13.57
2024-04-13T09:09:20.110Z,15.77
2024-04-13T09:11:47.436Z,15.68
2024-04-13T09:14:14.784Z,18.85
2024-04-13T09:16:42.241Z,22.98
2024-04-13T09:19:10.686Z,15.68
2024-04-13T09:21:40.989Z,16.30
2024-04-13T09:24:08.590Z,11.68
2024-04-13T09:26:43.038Z,12.63
2024-04-13T09:29:10.030Z,12.75
2024-04-13T09:31:44.370Z,18.17
2024-04-13T09:34:21.194Z,12.63
2024-04-13T09:36:48.722Z,10.60
2024-04-13T09:39:22.982Z,17.65
2024-04-13T09:41:50.438Z,15.80
2024-04-13T09:44:30.093Z,14.05
2024-04-13T09:46:57.769Z,16.48
2024-04-13T09:49:24.693Z,42.95
2024-04-13T09:51:52.077Z,21.13
2024-04-13T09:54:19.728Z,14.35
2024-04-13T09:56:47.647Z,29.10
2024-04-13T09:59:15.039Z,19.35
2024-04-13T10:01:42.514Z,13.82
2024-04-13T10:04:09.638Z,15.52
2024-04-13T10:06:38.882Z,16.98
2024-04-13T10:09:08.421Z,18.27
2024-04-13T10:11:39.742Z,16.08
2024-04-13T10:14:08.562Z,16.67
2024-04-13T10:16:35.955Z,22.58
2024-04-13T10:19:02.964Z,15.32
2024-04-13T10:21:35.668Z,19.70
2024-04-13T10:24:02.638Z,18.83
2024-04-13T10:26:30.363Z,15.65
2024-04-13T10:29:04.020Z,15.02
2024-04-13T10:31:34.277Z,14.90
2024-04-13T10:34:01.460Z,17.48
2024-04-13T10:36:38.861Z,16.40
2024-04-13T10:39:06.779Z,17.98
2024-04-13T10:41:38.335Z,14.93
2024-04-13T10:44:07.293Z,15.95
2024-04-13T10:46:34.916Z,14.43
2024-04-13T10:49:03.288Z,18.77
2024-04-13T10:51:30.302Z,20.35
2024-04-13T10:53:57.160Z,13.98
2024-04-13T10:56:23.961Z,10.98
2024-04-13T10:58:51.490Z,15.80
2024-04-13T11:01:20.137Z,15.48
2024-04-13T11:03:47.380Z,11.68
2024-04-13T11:06:14.538Z,16.58
2024-04-13T11:08:41.545Z,13.48
2024-04-13T11:11:12.169Z,14.13
2024-04-13T11:13:39.105Z,12.13
2024-04-13T11:16:07.268Z,11.75
2024-04-13T11:18:34.821Z,15.20
2024-04-13T11:21:06.984Z,16.92
2024-04-13T11:23:35.687Z,12.63
2024-04-13T11:26:03.759Z,16.55
2024-04-13T11:28:32.484Z,18.40
2024-04-13T11:31:00.470Z,15.85
2024-04-13T11:33:28.067Z,18.27
2024-04-13T11:35:58.597Z,17.40
2024-04-13T11:38:27.904Z,17.23
2024-04-13T11:40:55.644Z,13.15
2024-04-13T11:43:22.989Z,17.65
2024-04-13T11:45:50.958Z,15.45
2024-04-13T11:48:19.052Z,14.07
2024-04-13T11:50:48.066Z,15.98
2024-04-13T11:53:15.075Z,18.50
2024-04-13T11:55:41.932Z,14.15
2024-04-13T11:58:08.833Z,16.67
2024-04-13T12:00:35.869Z,13.18
2024-04-13T12:03:03.465Z,15.52
2024-04-13T12:05:31.264Z,13.10
2024-04-13T12:07:58.176Z,13.35
2024-04-13T12:10:25.554Z,10.02
2024-04-13T12:12:52.470Z,10.85
2024-04-13T12:15:19.363Z,11.32
2024-04-13T12:17:46.849Z,11.93
2024-04-13T12:20:15.677Z,13.13
2024-04-13T12:22:42.548Z,9.70
2024-04-13T12:25:09.492Z,12.27
2024-04-13T12:27:37.208Z,10.65
2024-04-13T12:30:05.124Z,12.77
2024-04-13T12:32:32.003Z,9.45
2024-04-13T12:34:58.936Z,11.23
2024-04-13T12:37:25.811Z,8.82
2024-04-13T12:39:52.834Z,11.27
2024-04-13T12:42:20.650Z,16.55
2024-04-13T12:44:48.647Z,14.60
2024-04-13T12:47:17.942Z,12.38
2024-04-13T12:52:11.798Z,10.98
2024-04-13T12:54:41.448Z,9.20
2024-04-13T12:57:09.040Z,10.82
2024-04-13T12:59:41.999Z,14.00
2024-04-13T13:02:08.966Z,13.48
2024-04-13T13:04:35.972Z,16.02
2024-04-13T13:07:04.871Z,13.32
2024-04-13T13:09:31.750Z,11.30
2024-04-13T13:11:58.812Z,8.85
2024-04-13T13:14:26.103Z,9.00
2024-04-13T13:16:53.083Z,10.25
2024-04-13T13:19:20.671Z,11.70
2024-04-13T13:21:50.494Z,11.07
2024-04-13T13:24:17.462Z,11.15
2024-04-13T13:26:44.383Z,12.32
2024-04-13T13:29:11.301Z,9.93
2024-04-13T13:31:38.206Z,9.30
2024-04-13T13:34:08.499Z,8.45
2024-04-13T13:36:36.023Z,10.60
2024-04-13T13:39:03.351Z,11.07
2024-04-13T13:41:32.383Z,10.13
2024-04-13T13:43:59.866Z,9.52
2024-04-13T13:46:27.050Z,11.90
2024-04-13T13:48:56.873Z,10.48
2024-04-13T13:51:24.575Z,9.45
2024-04-13T13:53:52.746Z,12.18
2024-04-13T13:56:19.616Z,10.48
2024-04-13T13:58:46.571Z,13.95
2024-04-13T14:01:13.589Z,12.98
2024-04-13T14:03:40.798Z,9.38
2024-04-13T14:06:08.168Z,13.38
2024-04-13T14:08:35.089Z,10.50
2024-04-13T14:11:02.053Z,9.15
2024-04-13T14:13:29.257Z,11.77
2024-04-13T14:15:56.373Z,7.55
2024-04-13T14:18:23.446Z,15.63
2024-04-13T14:20:50.390Z,10.65
2024-04-13T14:23:17.383Z,9.80
2024-04-13T14:25:47.480Z,10.35
2024-04-13T14:28:16.749Z,10.43
2024-04-13T14:30:44.177Z,10.45
2024-04-13T14:33:11.192Z,9.32
2024-04-13T14:35:38.587Z,9.25
2024-04-13T14:38:08.550Z,8.23
2024-04-13T14:40:35.739Z,12.40
2024-04-13T14:43:02.697Z,9.57
2024-04-13T14:45:29.980Z,15.68
2024-04-13T14:47:57.318Z,12.32
2024-04-13T14:50:24.262Z,11.80
2024-04-13T14:52:51.524Z,13.63
2024-04-13T14:55:18.515Z,13.60
2024-04-13T14:57:47.289Z,11.60
2024-04-13T15:00:15.012Z,13.80
2024-04-13T15:02:41.887Z,10.02
2024-04-13T15:05:10.062Z,13.23
2024-04-13T15:07:37.029Z,13.05
2024-04-13T15:10:05.154Z,12.68
2024-04-13T15:12:32.349Z,8.90
2024-04-13T15:14:59.380Z,10.25
2024-04-13T15:17:26.849Z,11.68
2024-04-13T15:19:53.903Z,9.55
2024-04-13T15:22:20.799Z,11.35
2024-04-13T15:24:47.934Z,8.82
2024-04-13T15:27:14.878Z,9.82
2024-04-13T15:29:41.666Z,12.30
2024-04-13T15:32:08.614Z,8.80
2024-04-13T15:34:36.827Z,12.43
2024-04-13T15:37:03.793Z,12.18
2024-04-13T15:39:30.767Z,8.23
2024-04-13T15:41:57.758Z,15.68
2024-04-13T15:44:24.718Z,8.70
2024-04-13T15:46:51.990Z,11.60
2024-04-13T15:49:19.137Z,11.13
2024-04-13T15:51:46.067Z,11.00
2024-04-13T15:54:13.600Z,9.35
2024-04-13T15:56:43.428Z,13.27
2024-04-13T15:59:11.174Z,9.57
2024-04-13T16:01:38.478Z,8.00
2024-04-13T16:04:08.466Z,11.27
2024-04-13T16:06:36.025Z,9.93
2024-04-13T16:09:03.449Z,10.32
2024-04-13T16:11:30.330Z,13.55
2024-04-13T16:13:58.604Z,13.02
2024-04-13T16:16:28.609Z,10.05
2024-04-13T16:18:56.204Z,10.30
2024-04-13T16:21:23.618Z,9.77
2024-04-13T16:23:50.910Z,10.05
2024-04-13T16:26:17.760Z,8.38
2024-04-13T16:28:44.561Z,9.05
2024-04-13T16:31:11.810Z,13.63
2024-04-13T16:33:38.818Z,12.85
2024-04-13T16:36:05.975Z,16.33
2024-04-13T16:38:35.246Z,13.25
2024-04-13T16:41:02.541Z,13.30
2024-04-13T16:43:29.388Z,10.15
2024-04-13T16:45:56.334Z,9.52
2024-04-13T16:48:24.262Z,11.55
2024-04-13T16:50:58.414Z,12.57
2024-04-13T16:53:26.517Z,12.57
2024-04-13T16:55:54.216Z,14.35
2024-04-13T16:58:21.562Z,10.20
2024-04-13T17:00:49.263Z,8.98
2024-04-13T17:03:16.927Z,14.40
2024-04-13T17:05:44.353Z,10.80
2024-04-13T17:08:11.862Z,8.45
2024-04-13T17:10:39.149Z,8.93
2024-04-13T17:13:06.011Z,13.65
2024-04-13T17:15:32.956Z,11.45
2024-04-13T17:18:00.248Z,13.18
2024-04-13T17:20:27.835Z,10.40
2024-04-13T17:22:54.677Z,10.75
2024-04-13T17:25:21.933Z,10.52
2024-04-13T17:27:49.216Z,9.70
2024-04-13T17:30:16.800Z,10.50
2024-04-13T17:32:43.673Z,11.73
2024-04-13T17:35:11.048Z,11.15
2024-04-13T17:37:38.535Z,14.07
2024-04-13T17:40:05.987Z,9.77
2024-04-13T17:42:32.938Z,9.23
2024-04-13T17:45:00.256Z,11.23
2024-04-13T17:47:27.664Z,15.25
2024-04-13T17:49:55.060Z,12.00
2024-04-13T17:52:22.512Z,10.73
2024-04-13T17:54:49.894Z,11.88
2024-04-13T17:57:16.910Z,9.43
2024-04-13T17:59:43.710Z,17.08
2024-04-13T18:02:10.543Z,11.65
2024-04-13T18:04:37.842Z,11.68
2024-04-13T18:07:05.435Z,12.18
2024-04-13T18:09:32.834Z,11.43
2024-04-13T18:11:59.886Z,9.43
2024-04-13T18:14:26.863Z,9.05
2024-04-13T18:16:54.172Z,13.63
2024-04-13T18:19:22.667Z,12.77
2024-04-13T18:21:49.775Z,11.32
2024-04-13T18:24:19.331Z,10.05
2024-04-13T18:26:46.994Z,11.45
2024-04-13T18:29:13.834Z,11.35
2024-04-13T18:31:42.436Z,14.88
2024-04-13T18:34:11.054Z,13.73
2024-04-13T18:36:38.804Z,11.98
2024-04-13T18:39:06.320Z,13.68
2024-04-13T18:41:37.772Z,14.23
2024-04-13T18:44:07.664Z,12.40
2024-04-13T18:46:36.457Z,11.50
2024-04-13T18:49:03.722Z,15.35
2024-04-13T18:51:31.023Z,15.80
2024-04-13T18:53:58.249Z,11.07
2024-04-13T18:56:25.554Z,11.25
2024-04-13T18:58:52.805Z,11.63
2024-04-13T19:01:20.483Z,12.80
2024-04-13T19:03:47.535Z,14.50
2024-04-13T19:06:14.837Z,13.02
2024-04-13T19:08:42.124Z,13.18
2024-04-13T19:11:09.423Z,15.05
2024-04-13T19:13:37.085Z,13.13
2024-04-13T19:16:09.922Z,14.38
2024-04-13T19:18:38.421Z,11.70
2024-04-13T19:21:06.390Z,16.67
2024-04-13T19:23:33.694Z,18.60
2024-04-13T19:26:02.034Z,15.55
2024-04-13T19:28:29.571Z,13.82
2024-04-13T19:30:56.596Z,17.77
2024-04-13T19:33:24.401Z,17.08
2024-04-13T19:35:52.633Z,15.65
2024-04-13T19:38:20.121Z,13.00
2024-04-13T19:40:52.194Z,14.10
2024-04-13T19:43:19.803Z,14.90
2024-04-13T19:45:47.256Z,16.33
2024-04-13T19:48:14.781Z,13.88
2024-04-13T19:50:42.128Z,14.35
2024-04-13T19:53:10.940Z,20.73
2024-04-13T19:55:38.289Z,16.90
2024-04-13T19:58:05.631Z,15.60
2024-04-13T20:00:36.159Z,16.25
2024-04-13T20:03:03.616Z,13.73
2024-04-13T20:05:35.221Z,17.95
2024-04-13T20:08:02.518Z,20.50
2024-04-13T20:10:29.534Z,16.65
2024-04-13T20:12:56.957Z,17.95
2024-04-13T20:15:42.721Z,19.25
2024-04-13T20:18:28.306Z,20.55
2024-04-13T20:20:55.360Z,21.67
2024-04-13T20:23:22.600Z,27.38
2024-04-13T20:25:49.865Z,23.15
2024-04-13T20:28:17.655Z,26.98
2024-04-13T20:30:45.428Z,23.80
2024-04-13T20:33:12.745Z,21.00
2024-04-13T20:35:41.243Z,20.55
2024-04-13T20:38:09.012Z,22.88
2024-04-13T20:40:36.344Z,21.15
2024-04-13T20:43:03.745Z,29.77
2024-04-13T20:45:31.147Z,31.90
2024-04-13T20:47:58.551Z,33.90
2024-04-13T20:50:25.880Z,35.65
2024-04-13T20:53:00.029Z,33.55
2024-04-13T20:55:29.353Z,32.88
2024-04-13T20:57:56.709Z,32.38
2024-04-13T21:00:23.723Z,33.35
2024-04-13T21:02:50.680Z,36.25
2024-04-13T21:05:18.054Z,52.42
2024-04-13T21:07:47.293Z,53.40
2024-04-13T21:10:14.431Z,62.47
2024-04-13T21:12:41.392Z,71.05
2024-04-13T21:15:08.775Z,74.82
2024-04-13T21:17:36.073Z,88.18
2024-04-13T21:20:03.399Z,77.32
2024-04-13T21:22:30.665Z,73.95
2024-04-13T21:24:58.843Z,79.05
2024-04-13T21:27:26.323Z,71.22
2024-04-13T21:29:53.852Z,70.07
2024-04-13T21:32:21.406Z,62.30
2024-04-13T21:34:50.286Z,59.67
2024-04-13T21:37:18.199Z,57.67
2024-04-13T21:39:45.750Z,57.95
2024-04-13T21:42:13.139Z,50.08
2024-04-13T21:44:41.341Z,46.63
2024-04-13T21:47:08.338Z,45.22
2024-04-13T21:49:35.595Z,50.75
2024-04-13T21:52:02.899Z,46.78
2024-04-13T21:54:30.254Z,45.53
2024-04-13T21:56:57.500Z,46.65
2024-04-13T21:59:25.045Z,39.03
2024-04-13T22:01:52.324Z,44.95
2024-04-13T22:04:19.676Z,44.22
2024-04-13T22:06:46.784Z,45.78
2024-04-13T22:09:14.375Z,41.35
2024-04-13T22:11:42.901Z,45.80
2024-04-13T22:14:10.201Z,44.28
2024-04-13T22:16:37.486Z,40.63
2024-04-13T22:19:04.784Z,41.10
2024-04-13T22:21:32.172Z,40.10
2024-04-13T22:24:01.612Z,37.67
2024-04-13T22:26:30.069Z,38.42
2024-04-13T22:28:57.347Z,38.13
2024-04-13T22:31:24.687Z,32.28
2024-04-13T22:33:51.946Z,33.67
2024-04-13T22:36:19.235Z,41.10
2024-04-13T22:38:46.245Z,44.22
2024-04-13T22:41:14.638Z,42.85
2024-04-13T22:43:41.505Z,35.75
2024-04-13T22:46:08.404Z,36.90
2024-04-13T22:48:35.393Z,39.50
2024-04-13T22:51:02.326Z,33.47
2024-04-13T22:53:29.614Z,37.45
2024-04-13T22:55:56.907Z,37.40
2024-04-13T22:58:23.785Z,38.08
2024-04-13T23:00:54.534Z,44.45
2024-04-13T23:03:22.006Z,38.63
2024-04-13T23:06:00.158Z,37.00
2024-04-13T23:08:27.816Z,41.65
2024-04-13T23:10:55.334Z,37.88
2024-04-13T23:13:22.322Z,37.60
2024-04-13T23:15:49.769Z,38.55
2024-04-13T23:18:16.818Z,38.50
2024-04-13T23:20:47.862Z,38.80
2024-04-13T23:23:15.418Z,38.03
2024-04-13T23:25:42.260Z,37.83
2024-04-13T23:28:09.321Z,37.58
2024-04-13T23:30:36.201Z,45.45
2024-04-13T23:33:03.234Z,38.72
2024-04-13T23:35:30.515Z,40.05
2024-04-13T23:37:58.000Z,39.65
2024-04-13T23:40:24.824Z,42.47
2024-04-13T23:42:51.939Z,42.42
2024-04-13T23:45:19.616Z,38.15
2024-04-13T23:47:46.540Z,37.58
2024-04-13T23:50:13.696Z,40.95
2024-04-13T23:52:40.621Z,40.78
2024-04-13T23:55:07.679Z,46.15
2024-04-13T23:57:37.693Z,38.10
